createdAt,value
2023-02-24T00:01:38.151Z,20.30
2023-02-24T00:11:50.866Z,20.60
2023-02-24T00:21:58.074Z,20.80
2023-02-24T00:32:08.919Z,21.20
2023-02-24T00:42:16.794Z,21.50
2023-02-24T00:52:28.638Z,23.00
2023-02-24T01:02:35.800Z,24.60
2023-02-24T01:12:54.849Z,24.50
2023-02-24T01:23:04.276Z,23.90
2023-02-24T01:33:15.522Z,23.80
2023-02-24T01:43:22.953Z,26.40
2023-02-24T01:53:34.618Z,27.30
2023-02-24T02:03:44.082Z,27.60
2023-02-24T02:13:54.264Z,28.10
2023-02-24T02:24:22.970Z,28.90
2023-02-24T02:34:43.490Z,30.60
2023-02-24T02:44:57.137Z,32.00
2023-02-24T02:55:11.844Z,31.60
2023-02-24T03:05:23.719Z,30.30
2023-02-24T03:15:35.214Z,29.70
2023-02-24T03:25:47.820Z,29.00
2023-02-24T03:36:02.639Z,28.50
2023-02-24T03:46:11.283Z,27.90
2023-02-24T03:56:31.177Z,27.20
2023-02-24T04:06:45.801Z,27.20
2023-02-24T04:17:02.037Z,26.40
2023-02-24T04:27:13.900Z,26.00
2023-02-24T04:37:24.374Z,26.00
2023-02-24T04:47:32.371Z,25.80
2023-02-24T04:57:41.076Z,25.70
2023-02-24T05:07:48.883Z,25.50
2023-02-24T05:17:58.837Z,25.20
2023-02-24T05:28:06.231Z,25.90
2023-02-24T05:38:15.156Z,26.20
2023-02-24T05:48:22.832Z,26.20
2023-02-24T05:58:31.690Z,26.40
2023-02-24T06:08:43.110Z,26.40
2023-02-24T06:18:53.072Z,26.30
2023-02-24T06:29:01.015Z,26.10
2023-02-24T06:39:11.160Z,26.20
2023-02-24T06:49:18.992Z,26.30
2023-02-24T06:59:29.450Z,26.20
2023-02-24T07:09:37.891Z,26.10
2023-02-24T07:19:47.036Z,25.80
2023-02-24T07:29:54.650Z,25.60
2023-02-24T07:40:03.531Z,25.50
2023-02-24T07:50:15.296Z,25.40
2023-02-24T08:00:29.120Z,25.90
2023-02-24T08:10:38.114Z,25.40
2023-02-24T08:20:53.864Z,25.30
2023-02-24T08:31:01.304Z,25.80
2023-02-24T08:41:18.665Z,25.20
2023-02-24T08:51:29.629Z,25.20
2023-02-24T09:01:40.156Z,25.20
2023-02-24T09:11:48.997Z,25.10
2023-02-24T09:22:20.012Z,25.10
2023-02-24T09:32:29.915Z,25.00
2023-02-24T09:42:48.764Z,25.00
2023-02-24T09:53:14.758Z,25.00
2023-02-24T10:03:43.092Z,24.90
2023-02-24T10:14:03.514Z,25.00
2023-02-24T10:24:23.887Z,25.00
2023-02-24T10:34:34.257Z,25.10
2023-02-24T10:45:01.299Z,25.00
2023-02-24T10:55:29.083Z,25.00
2023-02-24T11:05:45.253Z,25.10
2023-02-24T11:16:11.822Z,25.10
2023-02-24T11:26:22.432Z,25.00
2023-02-24T11:36:38.091Z,25.10
2023-02-24T11:46:51.973Z,25.10
2023-02-24T11:57:00.671Z,25.10
2023-02-24T12:07:13.854Z,25.10
2023-02-24T12:17:28.659Z,25.10
2023-02-24T12:27:51.525Z,25.60
2023-02-24T12:38:07.578Z,25.10
2023-02-24T12:48:32.720Z,25.10
2023-02-24T12:58:42.777Z,25.10
2023-02-24T13:09:01.283Z,25.10
2023-02-24T13:19:10.092Z,25.20
2023-02-24T13:29:19.457Z,25.10
2023-02-24T13:39:30.217Z,25.10
2023-02-24T13:49:46.265Z,25.20
2023-02-24T14:00:10.903Z,25.20
2023-02-24T14:10:26.137Z,25.10
2023-02-24T14:20:36.060Z,25.10
2023-02-24T14:30:45.338Z,25.10
2023-02-24T14:40:54.840Z,25.10
2023-02-24T14:51:06.942Z,25.00
2023-02-24T15:01:24.943Z,25.10
2023-02-24T15:11:37.997Z,25.10
2023-02-24T15:21:46.009Z,25.10
2023-02-24T15:31:56.164Z,25.00
2023-02-24T15:42:23.589Z,24.80
2023-02-24T15:52:32.786Z,24.90
2023-02-24T16:02:39.899Z,25.10
2023-02-24T16:12:52.251Z,25.40
2023-02-24T16:23:00.958Z,26.10
2023-02-24T16:33:14.108Z,26.50
2023-02-24T16:43:21.665Z,26.10
2023-02-24T16:53:30.447Z,24.70
2023-02-24T17:03:43.722Z,23.10
2023-02-24T17:13:52.766Z,21.90
2023-02-24T17:24:00.812Z,22.20
2023-02-24T17:34:11.870Z,22.30
2023-02-24T17:44:19.235Z,21.70
2023-02-24T17:54:28.070Z,21.30
2023-02-24T18:04:35.459Z,21.50
2023-02-24T18:14:44.258Z,21.50
2023-02-24T18:24:51.766Z,21.50
2023-02-24T18:35:00.435Z,20.70
2023-02-24T18:45:08.527Z,20.90
2023-02-24T18:55:17.374Z,21.30
2023-02-24T19:05:27.443Z,21.20
2023-02-24T19:15:45.596Z,21.30
2023-02-24T19:25:52.912Z,21.40
2023-02-24T19:36:03.592Z,21.00
2023-02-24T19:46:11.640Z,20.10
2023-02-24T19:56:20.877Z,20.30
2023-02-24T20:06:31.629Z,20.80
2023-02-24T20:16:41.618Z,21.30
2023-02-24T20:26:50.784Z,21.20
2023-02-24T20:36:59.796Z,20.60
2023-02-24T20:47:07.084Z,21.10
2023-02-24T20:57:15.863Z,22.10
2023-02-24T21:07:23.350Z,22.40
2023-02-24T21:17:35.107Z,22.30
2023-02-24T21:27:43.612Z,22.00
2023-02-24T21:37:52.576Z,20.90
2023-02-24T21:47:59.684Z,21.10
2023-02-24T21:58:08.755Z,22.60
2023-02-24T22:08:16.899Z,22.20
2023-02-24T22:18:25.684Z,22.10
2023-02-24T22:28:32.774Z,21.70
2023-02-24T22:38:42.598Z,21.70
2023-02-24T22:48:51.189Z,22.60
2023-02-24T22:59:01.449Z,22.90
2023-02-24T23:09:09.800Z,22.90
2023-02-24T23:19:20.161Z,22.70
2023-02-24T23:29:28.995Z,22.00
2023-02-24T23:39:38.039Z,22.20
2023-02-24T23:49:48.397Z,21.90
2023-02-24T23:59:57.897Z,21.70
